Time;durP1;ratioP1;P1;durP2;ratioP2;P2;SDS_P1;SDS_P2;PMS_P1;PMS_P2;Temp;Humidity;BMP_temperature;BMP_pressure;BME280_temperature;BME280_humidity;BME280_pressure;Samples;Min_cycle;Max_cycle;Signal;HPM_P1;HPM_P2
2022/04/05 05:01:24;;;;;;;9.48;6.53;;;7.50;99.90;;;;;;3886018;22;20241;-88
2022/04/05 05:03:51;;;;;;;10.05;7.18;;;7.50;99.90;;;;;;5078618;28;20732;-88
2022/04/05 05:06:20;;;;;;;10.15;7.05;;;7.60;99.90;;;;;;5079133;28;20213;-88
2022/04/05 05:08:47;;;;;;;10.50;7.40;;;7.60;99.90;;;;;;5078689;28;20237;-87
2022/04/05 05:11:16;;;;;;;9.15;7.30;;;7.60;99.90;;;;;;5091588;28;20235;-88
2022/04/05 05:13:43;;;;;;;14.43;7.85;;;7.50;99.90;;;;;;5098122;28;20323;-86
2022/04/05 05:16:10;;;;;;;9.45;7.30;;;7.20;99.90;;;;;;5099020;28;20729;-87
2022/04/05 05:18:38;;;;;;;10.43;7.30;;;7.50;99.90;;;;;;5099033;28;20254;-87
2022/04/05 05:21:05;;;;;;;11.20;6.90;;;7.50;99.90;;;;;;5108110;28;20229;-87
2022/04/05 05:23:32;;;;;;;10.13;6.65;;;7.20;99.90;;;;;;5106847;28;20224;-87
2022/04/05 05:26:01;;;;;;;12.88;7.40;;;7.50;99.90;;;;;;5101073;28;20204;-88
2022/04/05 05:28:28;;;;;;;9.75;7.35;;;7.50;99.90;;;;;;5099197;28;20215;-87
2022/04/05 05:30:55;;;;;;;12.00;7.68;;;7.50;99.90;;;;;;5099775;28;20333;-87
2022/04/05 05:33:22;;;;;;;11.73;7.60;;;7.40;99.90;;;;;;5102423;28;20231;-86
2022/04/05 05:35:53;;;;;;;10.93;6.95;;;7.40;99.90;;;;;;5103465;28;20208;-86
2022/04/05 05:38:20;;;;;;;12.07;8.30;;;7.40;99.90;;;;;;5101038;28;20186;-86
2022/04/05 05:40:47;;;;;;;11.02;7.00;;;7.40;99.90;;;;;;5100552;28;20233;-86
2022/04/05 05:43:14;;;;;;;10.85;6.97;;;7.20;99.90;;;;;;5100902;28;20685;-86
2022/04/05 05:45:41;;;;;;;10.27;6.65;;;7.50;99.90;;;;;;5100046;28;20224;-87
2022/04/05 05:48:09;;;;;;;9.40;6.72;;;7.50;99.90;;;;;;5100177;28;20586;-86
2022/04/05 05:50:36;;;;;;;11.38;7.85;;;7.50;99.90;;;;;;5098628;28;20662;-87
2022/04/05 05:53:05;;;;;;;8.98;6.85;;;7.50;99.90;;;;;;5100352;28;20221;-86
2022/04/05 05:55:32;;;;;;;14.23;8.00;;;7.60;99.90;;;;;;5102030;28;20280;-86
2022/04/05 05:57:59;;;;;;;9.95;7.55;;;7.50;99.90;;;;;;5102045;28;20216;-86
2022/04/05 06:00:26;;;;;;;10.90;7.28;;;7.50;99.90;;;;;;5101666;28;20240;-86
2022/04/05 06:02:56;;;;;;;10.25;6.95;;;7.50;99.90;;;;;;5103288;28;20239;-87
2022/04/05 06:05:23;;;;;;;9.10;6.80;;;7.50;99.90;;;;;;5113008;28;20179;-85
2022/04/05 06:07:50;;;;;;;13.60;6.70;;;7.60;99.90;;;;;;5118140;28;20205;-86
2022/04/05 06:10:20;;;;;;;9.38;7.78;;;7.60;99.90;;;;;;5115733;28;20239;-87
2022/04/05 06:12:49;;;;;;;12.05;7.70;;;7.50;99.90;;;;;;5115208;28;20189;-86
2022/04/05 06:15:17;;;;;;;9.73;6.85;;;7.30;99.90;;;;;;5115808;28;20277;-88
2022/04/05 06:17:47;;;;;;;12.15;7.15;;;7.50;99.90;;;;;;5119711;28;20193;-87
2022/04/05 06:20:17;;;;;;;10.38;7.60;;;7.50;99.90;;;;;;5118350;28;20292;-87
2022/04/05 06:22:45;;;;;;;10.60;6.85;;;7.40;99.90;;;;;;5114946;28;20197;-86
2022/04/05 06:25:16;;;;;;;10.30;7.22;;;7.40;99.90;;;;;;5113288;28;20292;-88
2022/04/05 06:27:45;;;;;;;11.13;7.93;;;7.40;99.90;;;;;;5111936;28;20187;-85
2022/04/05 06:30:14;;;;;;;13.93;7.20;;;7.50;99.90;;;;;;5109460;28;20648;-84
2022/04/05 06:32:41;;;;;;;12.02;6.68;;;7.50;99.90;;;;;;5109344;28;20228;-85
2022/04/05 06:35:10;;;;;;;10.43;6.88;;;7.50;99.90;;;;;;5109328;28;20201;-87
2022/04/05 06:37:38;;;;;;;9.10;6.45;;;7.50;99.90;;;;;;5111103;28;20205;-85
2022/04/05 06:40:07;;;;;;;11.88;8.07;;;7.50;99.90;;;;;;5111075;28;20315;-86
2022/04/05 06:42:43;;;;;;;10.35;7.43;;;7.50;99.90;;;;;;5115227;28;20204;-88
2022/04/05 06:45:17;;;;;;;13.02;7.32;;;7.60;99.90;;;;;;5112207;28;20181;-87
2022/04/05 06:47:47;;;;;;;9.70;7.30;;;7.60;99.90;;;;;;5106551;28;20199;-86
2022/04/05 06:50:24;;;;;;;8.63;6.93;;;7.20;99.90;;;;;;5103487;28;20225;-85
2022/04/05 06:52:57;;;;;;;9.60;6.75;;;7.70;99.90;;;;;;5102744;28;20185;-85
2022/04/05 06:55:25;;;;;;;12.90;6.90;;;7.70;99.90;;;;;;5102854;28;20212;-87
2022/04/05 06:57:52;;;;;;;10.60;6.47;;;7.70;99.90;;;;;;5102150;28;20209;-85
2022/04/05 07:00:23;;;;;;;8.75;6.00;;;7.60;99.90;;;;;;5102519;28;20248;-86
2022/04/05 07:02:51;;;;;;;9.63;6.10;;;7.30;99.90;;;;;;5101119;28;20200;-86
2022/04/05 07:05:18;;;;;;;8.40;6.88;;;7.30;99.90;;;;;;5101081;28;20217;-86
2022/04/05 07:07:45;;;;;;;9.35;6.75;;;7.80;99.90;;;;;;5101505;28;20212;-86
2022/04/05 07:10:15;;;;;;;11.85;5.60;;;7.80;99.90;;;;;;5103026;28;20252;-86
2022/04/05 07:12:43;;;;;;;8.88;5.68;;;7.80;99.90;;;;;;5102989;28;20221;-85
2022/04/05 07:15:10;;;;;;;9.13;6.20;;;7.90;99.90;;;;;;5100204;28;20315;-86
2022/04/05 07:17:39;;;;;;;10.40;6.43;;;7.90;99.90;;;;;;5101240;28;20262;-85
2022/04/05 07:20:08;;;;;;;8.85;6.80;;;8.00;99.90;;;;;;5107848;28;20360;-85
2022/04/05 07:22:35;;;;;;;8.43;5.50;;;7.90;99.90;;;;;;5113098;28;20212;-86
2022/04/05 07:25:02;;;;;;;9.05;6.20;;;8.00;99.90;;;;;;5116224;28;20239;-86
2022/04/05 07:27:29;;;;;;;8.45;6.00;;;8.10;99.90;;;;;;5116975;28;20219;-85
2022/04/05 07:29:56;;;;;;;9.43;6.80;;;8.10;99.90;;;;;;5108011;28;20256;-86
2022/04/05 07:32:23;;;;;;;10.15;6.38;;;8.20;99.90;;;;;;5106797;28;20575;-87
2022/04/05 07:34:51;;;;;;;11.23;6.18;;;8.20;99.90;;;;;;5105984;28;20236;-85
2022/04/05 07:37:18;;;;;;;9.65;6.18;;;8.20;99.90;;;;;;5106617;28;20208;-85
2022/04/05 07:39:45;;;;;;;9.25;6.13;;;8.20;99.90;;;;;;5102798;28;20264;-87
2022/04/05 07:42:12;;;;;;;9.77;6.00;;;8.20;99.90;;;;;;5101664;28;20228;-86
2022/04/05 07:44:39;;;;;;;8.88;5.80;;;8.20;99.90;;;;;;5101962;28;20204;-86
2022/04/05 07:47:07;;;;;;;9.52;5.75;;;8.20;99.90;;;;;;5101654;28;20259;-87
2022/04/05 07:49:34;;;;;;;13.43;7.00;;;8.30;99.90;;;;;;5101528;28;20240;-86
2022/04/05 07:52:02;;;;;;;9.30;6.90;;;8.20;99.90;;;;;;5101692;28;20259;-87
2022/04/05 07:54:29;;;;;;;9.10;5.93;;;8.20;99.90;;;;;;5105535;28;20260;-85
2022/04/05 07:56:57;;;;;;;9.30;6.45;;;8.20;99.90;;;;;;5100144;28;20197;-86
2022/04/05 07:59:27;;;;;;;10.98;6.30;;;8.30;99.90;;;;;;5100208;28;20228;-85
2022/04/05 08:01:54;;;;;;;9.85;6.32;;;8.50;99.90;;;;;;5101204;28;20315;-84
2022/04/05 08:04:24;;;;;;;7.57;5.30;;;8.60;99.90;;;;;;5102575;28;20225;-85
2022/04/05 08:06:51;;;;;;;8.43;5.47;;;8.60;99.90;;;;;;5106817;28;20434;-84
2022/04/05 08:09:19;;;;;;;9.00;5.75;;;8.70;99.90;;;;;;5109018;28;20211;-84
2022/04/05 08:11:46;;;;;;;9.70;6.30;;;8.80;99.90;;;;;;5107093;28;20658;-84
2022/04/05 08:14:13;;;;;;;7.50;5.50;;;8.90;99.90;;;;;;5107609;28;20554;-85
2022/04/05 08:16:40;;;;;;;9.13;6.05;;;9.10;99.90;;;;;;5116243;28;20205;-84
2022/04/05 08:19:10;;;;;;;11.00;6.85;;;9.20;99.90;;;;;;5107785;28;20661;-85
2022/04/05 08:21:37;;;;;;;8.32;5.80;;;9.20;99.90;;;;;;5106574;28;20319;-85
2022/04/05 08:24:05;;;;;;;7.47;5.22;;;9.20;99.90;;;;;;5110872;28;20201;-85
2022/04/05 08:26:33;;;;;;;10.80;6.68;;;9.20;99.90;;;;;;5106329;28;20216;-85
2022/04/05 08:29:00;;;;;;;9.25;6.05;;;9.10;99.90;;;;;;5103162;28;20208;-86
2022/04/05 08:31:27;;;;;;;7.38;5.20;;;9.20;99.90;;;;;;5102922;28;20224;-83
2022/04/05 08:33:54;;;;;;;10.15;5.80;;;9.30;99.90;;;;;;5104065;28;20270;-86
2022/04/05 08:36:21;;;;;;;8.57;5.80;;;9.30;99.90;;;;;;5110327;28;20215;-86
2022/04/05 08:38:48;;;;;;;9.82;5.13;;;9.30;99.90;;;;;;5102580;28;20270;-85
2022/04/05 08:41:29;;;;;;;9.02;6.13;;;9.30;99.90;;;;;;5103198;28;20240;-85
2022/04/05 08:43:58;;;;;;;8.57;6.32;;;9.40;99.90;;;;;;5106951;28;20732;-87
2022/04/05 08:46:27;;;;;;;9.68;5.40;;;9.20;99.90;;;;;;5115412;28;20215;-84
2022/04/05 08:48:54;;;;;;;8.83;5.80;;;9.30;99.90;;;;;;5111549;28;20209;-84
2022/04/05 08:51:21;;;;;;;10.00;6.03;;;9.30;99.90;;;;;;5110573;28;20458;-84
2022/04/05 08:53:48;;;;;;;8.10;5.78;;;9.40;99.90;;;;;;5103605;28;20224;-85
2022/04/05 08:56:16;;;;;;;9.03;5.57;;;9.50;99.90;;;;;;5101764;28;20212;-85
2022/04/05 08:58:46;;;;;;;9.45;5.45;;;9.60;99.90;;;;;;5101117;28;20424;-86
2022/04/05 09:01:14;;;;;;;10.70;5.72;;;9.60;99.90;;;;;;5102150;28;20323;-85
2022/04/05 09:03:41;;;;;;;11.00;5.50;;;9.70;99.90;;;;;;5101507;28;20240;-86
2022/04/05 09:06:28;;;;;;;9.33;6.23;;;9.70;99.90;;;;;;5105173;28;20927;-86
2022/04/05 09:09:08;;;;;;;7.73;5.00;;;9.80;99.90;;;;;;5102446;28;20461;-87
2022/04/05 09:11:36;;;;;;;8.20;4.70;;;10.00;99.90;;;;;;5094424;28;20460;-86
2022/04/05 09:14:04;;;;;;;10.43;5.53;;;10.10;99.90;;;;;;5102683;28;20486;-85
2022/04/05 09:16:35;;;;;;;6.67;4.40;;;10.10;99.90;;;;;;5102162;28;20436;-87
2022/04/05 09:19:11;;;;;;;8.13;4.78;;;10.10;99.90;;;;;;5111988;28;20974;-84
2022/04/05 09:22:03;;;;;;;7.90;5.00;;;10.20;99.90;;;;;;5104497;28;20228;-86
2022/04/05 09:24:34;;;;;;;9.30;5.30;;;10.20;99.90;;;;;;5102358;28;20436;-86
2022/04/05 09:27:09;;;;;;;7.20;4.97;;;10.30;99.90;;;;;;5110419;28;20401;-85
2022/04/05 09:29:43;;;;;;;6.20;4.37;;;10.30;99.90;;;;;;5115530;28;20385;-85
2022/04/05 09:32:32;;;;;;;6.80;4.40;;;10.30;99.90;;;;;;5115150;28;20422;-85
2022/04/05 09:35:01;;;;;;;6.13;4.30;;;10.20;99.90;;;;;;5105277;28;20875;-85
2022/04/05 09:37:36;;;;;;;6.33;4.20;;;10.40;99.90;;;;;;5103874;28;20455;-85
2022/04/05 09:40:25;;;;;;;7.40;4.30;;;10.40;99.90;;;;;;5105526;28;20482;-84
2022/04/05 09:42:59;;;;;;;6.80;4.60;;;10.40;99.90;;;;;;5107496;28;20451;-86
2022/04/05 09:45:50;;;;;;;7.23;4.63;;;10.50;99.90;;;;;;5107923;28;20442;-85
2022/04/05 09:48:20;;;;;;;7.50;5.03;;;10.50;99.90;;;;;;5107990;28;20531;-86
2022/04/05 09:51:03;;;;;;;8.10;4.53;;;10.50;99.90;;;;;;5105495;28;20481;-85
2022/04/05 09:53:44;;;;;;;6.80;4.40;;;10.60;99.90;;;;;;5103392;28;20869;-85
2022/04/05 09:56:15;;;;;;;9.10;5.40;;;10.60;99.90;;;;;;5106285;28;20739;-87
2022/04/05 09:58:53;;;;;;;7.67;4.83;;;10.50;99.90;;;;;;5104781;28;20542;-86
2022/04/05 10:04:13;;;;;;;6.37;4.23;;;10.50;99.90;;;;;;5113672;28;20827;-85
2022/04/05 10:06:48;;;;;;;8.93;5.23;;;10.40;99.90;;;;;;5115978;28;20438;-86
2022/04/05 10:09:17;;;;;;;8.30;5.30;;;10.50;99.90;;;;;;5107937;28;20442;-86
2022/04/05 10:11:46;;;;;;;8.50;4.97;;;10.50;99.90;;;;;;5104286;28;20467;-85
2022/04/05 10:14:20;;;;;;;7.20;4.50;;;10.50;99.90;;;;;;5106060;28;20486;-85
2022/04/05 10:16:48;;;;;;;9.07;4.80;;;10.30;99.90;;;;;;5105834;28;20505;-86
2022/04/05 10:19:19;;;;;;;7.30;4.93;;;10.40;99.90;;;;;;5106767;28;20423;-86
2022/04/05 10:21:50;;;;;;;7.70;4.60;;;10.30;99.90;;;;;;5110695;28;20502;-86
2022/04/05 10:24:20;;;;;;;8.33;4.80;;;10.30;99.90;;;;;;5108210;28;20497;-87
2022/04/05 10:26:49;;;;;;;8.70;5.00;;;10.30;99.90;;;;;;5107043;28;20450;-86
2022/04/05 10:29:18;;;;;;;8.13;4.80;;;10.40;99.90;;;;;;5105201;28;20473;-87
2022/04/05 10:31:57;;;;;;;8.97;5.07;;;10.40;99.90;;;;;;5106650;28;20526;-87
2022/04/05 10:34:31;;;;;;;8.40;5.40;;;10.30;99.90;;;;;;5108469;28;20473;-87
2022/04/05 10:37:06;;;;;;;7.20;4.80;;;10.40;99.90;;;;;;5115066;28;20465;-87
2022/04/05 10:39:33;;;;;;;9.97;5.27;;;10.40;99.90;;;;;;5118391;28;21001;-87
2022/04/05 10:42:24;;;;;;;9.73;5.20;;;10.40;99.90;;;;;;5119803;28;20420;-85
2022/04/05 10:45:09;;;;;;;9.00;6.37;;;10.40;99.90;;;;;;5120141;28;20503;-85
2022/04/05 10:47:59;;;;;;;8.40;5.23;;;10.40;99.90;;;;;;5109236;28;20442;-84
2022/04/05 10:50:28;;;;;;;6.60;4.17;;;10.50;99.90;;;;;;5104221;28;20441;-86
2022/04/05 10:53:24;;;;;;;7.23;4.73;;;10.50;99.90;;;;;;5108666;28;20500;-86
2022/04/05 10:56:16;;;;;;;8.23;4.77;;;10.50;99.90;;;;;;5102896;28;20566;-85
2022/04/05 10:59:18;;;;;;;8.57;4.43;;;10.60;99.90;;;;;;5110134;28;20446;-85
2022/04/05 11:01:48;;;;;;;11.70;5.13;;;10.70;99.90;;;;;;5099401;28;20453;-85
2022/04/05 11:04:47;;;;;;;8.40;4.70;;;10.80;99.90;;;;;;5102474;28;20443;-85
2022/04/05 11:11:04;;;;;;;10.50;4.17;;;10.90;99.90;;;;;;5111124;28;20470;-86
2022/04/05 11:13:57;;;;;;;7.00;3.70;;;11.00;99.90;;;;;;5109805;28;20467;-87
2022/04/05 11:16:27;;;;;;;7.10;4.30;;;10.90;99.90;;;;;;5107669;28;20471;-87
2022/04/05 11:19:07;;;;;;;5.53;3.80;;;11.00;99.90;;;;;;5107640;28;20447;-87
2022/04/05 11:22:01;;;;;;;8.70;4.60;;;10.90;99.90;;;;;;5113943;28;20986;-85
2022/04/05 11:25:19;;;;;;;6.33;4.10;;;11.00;99.90;;;;;;5114551;28;20431;-86
2022/04/05 12:18:28;;;;;;;8.43;3.37;;;12.50;99.90;;;;;;5089457;28;20475;-85
2022/04/05 12:21:15;;;;;;;5.73;3.03;;;12.50;99.90;;;;;;5087130;28;20946;-86
2022/04/05 19:33:56;;;;;;;7.30;4.93;;;11.90;99.90;;;;;;4979351;28;20441;-85
2022/04/05 19:37:17;;;;;;;;;;;;;;;;;;;;;
2022/04/05 20:27:08;;;;;;;10.17;6.10;;;11.70;99.90;;;;;;4159064;26;20478;-84
2022/04/05 20:36:29;;;;;;;7.50;5.60;;;11.80;99.90;;;;;;4901990;29;20499;-85
2022/04/05 20:59:05;;;;;;;7.20;5.53;;;11.90;99.90;;;;;;4923564;29;20453;-86
2022/04/05 21:01:40;;;;;;;8.60;5.30;;;11.80;99.90;;;;;;4943650;29;20520;-84
2022/04/05 21:04:10;;;;;;;8.10;6.03;;;11.80;99.90;;;;;;4961581;29;20448;-84
2022/04/05 22:25:34;;;;;;;6.90;5.03;;;11.80;99.90;;;;;;3681353;23;20850;-87
2022/04/05 22:28:01;;;;;;;6.27;4.67;;;11.90;99.90;;;;;;5067058;28;20419;-88
2022/04/05 22:30:28;;;;;;;7.30;5.60;;;11.80;99.90;;;;;;5065449;28;20490;-88
2022/04/05 22:32:55;;;;;;;7.20;5.07;;;11.90;99.90;;;;;;5065847;28;20922;-88
2022/04/05 22:35:22;;;;;;;7.17;5.40;;;11.90;99.90;;;;;;5064868;28;20520;-88
2022/04/05 22:37:49;;;;;;;8.67;5.57;;;11.80;99.90;;;;;;5070158;28;20459;-88
2022/04/05 22:40:16;;;;;;;7.37;5.10;;;11.80;99.90;;;;;;5079426;28;20466;-88
2022/04/05 22:42:44;;;;;;;8.17;5.53;;;11.80;99.90;;;;;;5066770;28;20492;-88
2022/04/05 22:45:11;;;;;;;7.77;5.60;;;11.90;99.90;;;;;;5064914;28;20431;-88
2022/04/05 22:47:38;;;;;;;7.57;5.40;;;11.80;99.90;;;;;;5063278;28;20419;-87
2022/04/05 22:50:06;;;;;;;9.00;5.97;;;11.80;99.90;;;;;;5067320;28;20445;-89
2022/04/05 22:52:33;;;;;;;7.67;6.10;;;11.90;99.90;;;;;;5073708;28;20471;-87
2022/04/05 22:55:01;;;;;;;8.87;5.60;;;11.80;99.90;;;;;;5074888;28;20469;-86
2022/04/05 22:57:28;;;;;;;7.70;6.07;;;11.80;99.90;;;;;;5062788;28;20480;-86
2022/04/05 22:59:59;;;;;;;7.20;5.30;;;12.00;99.90;;;;;;5068111;28;20452;-87
2022/04/05 23:02:27;;;;;;;9.27;5.50;;;12.00;99.90;;;;;;5067418;28;20453;-87
2022/04/05 23:04:53;;;;;;;7.77;6.00;;;11.90;99.90;;;;;;5065419;28;20511;-87
2022/04/05 23:07:23;;;;;;;7.67;6.50;;;11.80;99.90;;;;;;5064298;28;20479;-87
2022/04/05 23:09:50;;;;;;;12.13;7.37;;;11.70;99.90;;;;;;5063629;28;20434;-88
2022/04/05 23:12:17;;;;;;;8.07;6.50;;;11.80;99.90;;;;;;5063576;28;20441;-88
2022/04/05 23:14:46;;;;;;;9.73;7.00;;;11.70;99.90;;;;;;5063846;28;20431;-88
2022/04/05 23:17:15;;;;;;;7.90;6.33;;;11.80;99.90;;;;;;5063821;28;20468;-88
2022/04/05 23:19:42;;;;;;;8.50;6.10;;;11.90;99.90;;;;;;5064322;28;20497;-87
2022/04/05 23:22:12;;;;;;;7.50;5.63;;;11.90;99.90;;;;;;5062559;28;20474;-88
2022/04/05 23:24:42;;;;;;;7.93;5.83;;;11.80;99.90;;;;;;5070466;28;20486;-88
2022/04/05 23:27:12;;;;;;;8.83;6.10;;;11.90;99.90;;;;;;5072889;28;20898;-88
2022/04/05 23:29:39;;;;;;;7.07;5.93;;;11.90;99.90;;;;;;5065441;28;20452;-88
2022/04/05 23:32:08;;;;;;;9.77;6.47;;;11.80;99.90;;;;;;5058507;28;20452;-87
2022/04/05 23:34:39;;;;;;;8.33;5.97;;;11.80;99.90;;;;;;5057354;28;20472;-87
2022/04/05 23:37:08;;;;;;;7.33;5.50;;;11.80;99.90;;;;;;5059220;28;20503;-87
2022/04/05 23:39:35;;;;;;;8.33;5.37;;;11.70;99.90;;;;;;5060636;28;20519;-86
2022/04/05 23:42:02;;;;;;;7.23;5.13;;;11.70;99.90;;;;;;5062696;28;20435;-88
2022/04/05 23:44:29;;;;;;;8.10;5.33;;;11.80;99.90;;;;;;5064311;28;20467;-86
2022/04/05 23:46:56;;;;;;;8.00;5.27;;;11.80;99.90;;;;;;5063718;28;20464;-86
2022/04/05 23:49:23;;;;;;;10.53;6.10;;;11.90;99.90;;;;;;5062976;28;20934;-86
2022/04/05 23:51:52;;;;;;;7.50;5.80;;;11.80;99.90;;;;;;5063294;28;20460;-87
2022/04/05 23:54:20;;;;;;;8.23;5.70;;;11.70;99.90;;;;;;5069086;28;20432;-84
2022/04/05 23:56:49;;;;;;;8.27;5.50;;;11.70;99.90;;;;;;5078306;28;20472;-85
2022/04/05 23:59:21;;;;;;;7.50;5.30;;;11.70;99.90;;;;;;5075475;28;20779;-88
